Stephanie Kennelly — WDE3527 — position and weather

sailwx.info

Track history (hours):
 
Tides and Currents Weather Stations Pressure Air Temp Water Temp Dewpoint Dewpoint Depression Visibility Wind Speed Wind Dir Waves Ship Positions

Stephanie Kennelly

Owner: Florida Marine, LLC, Mandeville, LA. More information available from US FCC via Universal Licensing System and Coast Guard Vessel Documentation Center.

Last reported at 2018-Feb-13 03:13 UTC. Time now 2018-Feb-17 21:08 UTC.
Position N 29°33' W 090°24'.

Length 27 m; draft 2.8 m.

Type: Towing. MMSI: 367340430.

Date/timePositionNaut miles runAvg speedWind from/ knotsBaromVisibWave heightAir tempDewpointWater temp
2018-Feb-13 03:13N 29°33' W 090°24'2 2.2
2018-Feb-13 02:14N 29°33' W 090°26'2 3.5
2018-Feb-13 01:43N 29°34' W 090°28'1 4.6
2018-Feb-13 01:30N 29°34' W 090°29'2 4.5
2018-Feb-13 01:00N 29°34' W 090°32'2 4.4
2018-Feb-13 00:30N 29°34' W 090°34'2 4.1
2018-Feb-13 00:01N 29°35' W 090°37'1 2.0
2018-Feb-12 23:30N 29°35' W 090°38'1 1.5
2018-Feb-12 23:00N 29°35' W 090°39'2 3.7
2018-Feb-12 22:31N 29°36' W 090°40'2 3.6
2018-Feb-12 22:00N 29°37' W 090°42'2 3.8
2018-Feb-12 21:30N 29°35' W 090°43'2 3.2
2018-Feb-12 21:00N 29°34' W 090°45'0 0.0
2018-Feb-12 20:30N 29°34' W 090°45'0 0.0
2018-Feb-12 20:00N 29°34' W 090°45'0 0.3
2018-Feb-12 19:30N 29°34' W 090°45'2 3.5
2018-Feb-12 18:59N 29°32' W 090°46'3 5.2
2018-Feb-12 18:30N 29°32' W 090°49'3 5.2
2018-Feb-12 18:00N 29°32' W 090°52'3 5.1
2018-Feb-12 17:30N 29°33' W 090°54'2 5.0
2018-Feb-12 17:00N 29°34' W 090°57'59 3.5
2018-Feb-11 23:58N 29°49' W 092°03'2 4.4
2018-Feb-11 23:29N 29°48' W 092°05'2 4.7
2018-Feb-11 23:00N 29°47' W 092°08'2 4.6
2018-Feb-11 22:30N 29°47' W 092°10'2 3.8
2018-Feb-11 22:00N 29°47' W 092°12'2 3.4
2018-Feb-11 21:30N 29°48' W 092°14'1 1.5
2018-Feb-11 20:58N 29°48' W 092°15'0 0.0
2018-Feb-11 20:30N 29°48' W 092°15'0 0.0
2018-Feb-11 20:00N 29°48' W 092°15'1 1.7
2018-Feb-11 19:30N 29°48' W 092°16'2 3.6
2018-Feb-11 19:00N 29°49' W 092°18'2 3.0
2018-Feb-11 18:30N 29°50' W 092°19'1 2.0
2018-Feb-11 18:00N 29°51' W 092°20'0 0.2
2018-Feb-11 17:30N 29°51' W 092°20'5 0.8
2018-Feb-11 11:31N 29°53' W 092°25'0 0.0
2018-Feb-11 11:27N 29°53' W 092°25'0 0.0
2018-Feb-11 10:59N 29°53' W 092°25'0 0.0
2018-Feb-11 10:29N 29°53' W 092°25'0 0.0
2018-Feb-11 09:48N 29°53' W 092°25'0 0.0
2018-Feb-11 09:29N 29°53' W 092°25'0 0.0
2018-Feb-11 08:55N 29°53' W 092°25'0 0.0
2018-Feb-11 07:49N 29°53' W 092°25'0 0.0
2018-Feb-11 07:30N 29°53' W 092°25'0 0.0
2018-Feb-11 06:58N 29°53' W 092°25'0 0.0
2018-Feb-11 06:30N 29°53' W 092°25'33 3.5
2018-Feb-10 21:06N 29°56' W 093°03'1 4.4
2018-Feb-10 20:56N 29°56' W 093°04'2 4.2
2018-Feb-10 20:30N 29°56' W 093°06'2 4.2
2018-Feb-10 20:00N 29°56' W 093°08'0 0.2
2018-Feb-10 19:30N 29°56' W 093°08'1 1.6
2018-Feb-10 19:00N 29°56' W 093°09'2 4.2
2018-Feb-10 18:31N 29°58' W 093°11'2 3.7
2018-Feb-10 18:00N 29°59' W 093°12'2 3.7
2018-Feb-10 17:30N 30°00' W 093°14'2 3.2
2018-Feb-10 17:01N 30°02' W 093°15'1 1.2
2018-Feb-10 16:30N 30°02' W 093°15'2 3.1
2018-Feb-10 16:00N 30°04' W 093°16'1 2.7
2018-Feb-10 15:30N 30°05' W 093°17'1 2.7
2018-Feb-10 15:00N 30°06' W 093°18'1 1.2
2018-Feb-10 14:30N 30°06' W 093°18'0 0.0
2018-Feb-10 14:00N 30°06' W 093°18'0 0.0
2018-Feb-10 13:30N 30°06' W 093°18'0 0.0
2018-Feb-10 13:00N 30°06' W 093°18'0 0.0
2018-Feb-10 12:30N 30°06' W 093°18'0 0.0
2018-Feb-10 12:00N 30°06' W 093°18'0 0.0
2018-Feb-10 11:30N 30°06' W 093°18'0 0.0
2018-Feb-10 11:00N 30°06' W 093°18'0 0.0
2018-Feb-10 10:30N 30°06' W 093°18'0 0.0
2018-Feb-10 10:00N 30°06' W 093°18'0 0.0
2018-Feb-10 09:30N 30°06' W 093°18'0 0.0
2018-Feb-10 09:00N 30°06' W 093°18'0 0.0
2018-Feb-10 08:30N 30°06' W 093°18'0 0.0
2018-Feb-10 08:00N 30°06' W 093°18'0 0.0
2018-Feb-10 07:30N 30°06' W 093°18'0 0.0
2018-Feb-10 07:00N 30°06' W 093°18'0 0.1
2018-Feb-10 06:30N 30°06' W 093°18'0 0.0
2018-Feb-10 06:00N 30°06' W 093°18'0 0.0
2018-Feb-10 05:30N 30°06' W 093°18'0 0.0
2018-Feb-10 05:00N 30°06' W 093°18'1 1.3
2018-Feb-10 04:31N 30°06' W 093°19'0 0.0
2018-Feb-10 04:00N 30°06' W 093°19'0 0.0
2018-Feb-10 03:30N 30°06' W 093°19'0 0.0
2018-Feb-10 03:00N 30°06' W 093°19'0 0.0
2018-Feb-10 02:30N 30°06' W 093°19'0 0.4
2018-Feb-10 02:00N 30°06' W 093°19'2 4.1
2018-Feb-10 01:30N 30°04' W 093°21'2 3.1
2018-Feb-10 01:00N 30°04' W 093°22'7 4.1
2018-Feb-09 23:22N 30°04' W 093°30'2 4.4
2018-Feb-09 22:59N 30°04' W 093°32'1 4.4
2018-Feb-09 22:46N 30°04' W 093°33'25 4.8
2018-Feb-09 17:30N 29°50' W 093°57'61 1.5
2018-Feb-07 23:54N 29°46' W 095°07'0 0.0
2018-Feb-07 21:58N 29°46' W 095°07'0 0.5
2018-Feb-07 21:30N 29°46' W 095°07'0 0.0
2018-Feb-06 22:04N 29°46' W 095°07'0 1.5
2018-Feb-06 21:59N 29°46' W 095°07'0 0.0
2018-Feb-06 20:32N 29°46' W 095°07'0 0.0
2018-Feb-06 20:30N 29°46' W 095°07'0 0.1
2018-Feb-06 19:30N 29°46' W 095°07'0 0.0
2018-Feb-06 18:23N 29°46' W 095°07'0 0.0
2018-Feb-06 17:59N 29°46' W 095°07'0 0.0
2018-Feb-06 17:30N 29°46' W 095°07'0 0.0
2018-Feb-06 17:00N 29°46' W 095°07'0 0.0
2018-Feb-06 16:27N 29°46' W 095°07'0 0.0
2018-Feb-06 16:00N 29°46' W 095°07'0 0.0
2018-Feb-06 15:30N 29°46' W 095°07'0 0.0
2018-Feb-06 15:00N 29°46' W 095°07'0 0.0
2018-Feb-06 14:30N 29°46' W 095°07'0 0.0
2018-Feb-06 14:00N 29°46' W 095°07'0 0.0
2018-Feb-06 11:14N 29°46' W 095°07'0 0.0
2018-Feb-06 11:00N 29°46' W 095°07'0 0.0
2018-Feb-06 07:37N 29°46' W 095°07'0 0.0
2018-Feb-06 07:29N 29°46' W 095°07'0 0.0
2018-Feb-06 06:01N 29°46' W 095°07'0 0.0
2018-Feb-06 05:56N 29°46' W 095°07'0 0.0
2018-Feb-06 05:30N 29°46' W 095°07'0 0.0
2018-Feb-06 03:30N 29°46' W 095°07'0 0.0
2018-Feb-06 00:46N 29°46' W 095°07'0 0.0
2018-Feb-06 00:29N 29°46' W 095°07'0 0.0
2018-Feb-05 23:57N 29°46' W 095°07'0 0.0
2018-Feb-05 23:30N 29°46' W 095°07'0 0.0
2018-Feb-05 23:00N 29°46' W 095°07'0 0.0
2018-Feb-05 22:30N 29°46' W 095°07'0 0.0
2018-Feb-05 21:25N 29°46' W 095°07'0 0.0
2018-Feb-05 21:00N 29°46' W 095°07'0 0.0
2018-Feb-05 20:29N 29°46' W 095°07'0 0.0
2018-Feb-05 20:00N 29°46' W 095°07'0 0.0
2018-Feb-05 19:30N 29°46' W 095°07'0 0.0
2018-Feb-04 15:30N 29°46' W 095°07'0 0.0
2018-Feb-04 09:44N 29°46' W 095°07'  
Track history (hours):
 
Tides and Currents Weather Stations Pressure Air Temp Water Temp Dewpoint Dewpoint Depression Visibility Wind Speed Wind Dir Waves Ship Positions

Stephanie Kennelly

Owner: Florida Marine, LLC, Mandeville, LA. More information available from US FCC via Universal Licensing System and Coast Guard Vessel Documentation Center.

Last reported at 2018-Feb-13 03:13 UTC. Time now 2018-Feb-17 21:08 UTC.
Position N 29°33' W 090°24'.

Length 27 m; draft 2.8 m.

Type: Towing. MMSI: 367340430.

Date/timePositionNaut miles runAvg speedWind from/ knotsBaromVisibWave heightAir tempDewpointWater temp
2018-Feb-13 03:13N 29°33' W 090°24'2 2.2
2018-Feb-13 02:14N 29°33' W 090°26'2 3.5
2018-Feb-13 01:43N 29°34' W 090°28'1 4.6
2018-Feb-13 01:30N 29°34' W 090°29'2 4.5
2018-Feb-13 01:00N 29°34' W 090°32'2 4.4
2018-Feb-13 00:30N 29°34' W 090°34'2 4.1
2018-Feb-13 00:01N 29°35' W 090°37'1 2.0
2018-Feb-12 23:30N 29°35' W 090°38'1 1.5
2018-Feb-12 23:00N 29°35' W 090°39'2 3.7
2018-Feb-12 22:31N 29°36' W 090°40'2 3.6
2018-Feb-12 22:00N 29°37' W 090°42'2 3.8
2018-Feb-12 21:30N 29°35' W 090°43'2 3.2
2018-Feb-12 21:00N 29°34' W 090°45'0 0.0
2018-Feb-12 20:30N 29°34' W 090°45'0 0.0
2018-Feb-12 20:00N 29°34' W 090°45'0 0.3
2018-Feb-12 19:30N 29°34' W 090°45'2 3.5
2018-Feb-12 18:59N 29°32' W 090°46'3 5.2
2018-Feb-12 18:30N 29°32' W 090°49'3 5.2
2018-Feb-12 18:00N 29°32' W 090°52'3 5.1
2018-Feb-12 17:30N 29°33' W 090°54'2 5.0
2018-Feb-12 17:00N 29°34' W 090°57'59 3.5
2018-Feb-11 23:58N 29°49' W 092°03'2 4.4
2018-Feb-11 23:29N 29°48' W 092°05'2 4.7
2018-Feb-11 23:00N 29°47' W 092°08'2 4.6
2018-Feb-11 22:30N 29°47' W 092°10'2 3.8
2018-Feb-11 22:00N 29°47' W 092°12'2 3.4
2018-Feb-11 21:30N 29°48' W 092°14'1 1.5
2018-Feb-11 20:58N 29°48' W 092°15'0 0.0
2018-Feb-11 20:30N 29°48' W 092°15'0 0.0
2018-Feb-11 20:00N 29°48' W 092°15'1 1.7
2018-Feb-11 19:30N 29°48' W 092°16'2 3.6
2018-Feb-11 19:00N 29°49' W 092°18'2 3.0
2018-Feb-11 18:30N 29°50' W 092°19'1 2.0
2018-Feb-11 18:00N 29°51' W 092°20'0 0.2
2018-Feb-11 17:30N 29°51' W 092°20'5 0.8
2018-Feb-11 11:31N 29°53' W 092°25'0 0.0
2018-Feb-11 11:27N 29°53' W 092°25'0 0.0
2018-Feb-11 10:59N 29°53' W 092°25'0 0.0
2018-Feb-11 10:29N 29°53' W 092°25'0 0.0
2018-Feb-11 09:48N 29°53' W 092°25'0 0.0
2018-Feb-11 09:29N 29°53' W 092°25'0 0.0
2018-Feb-11 08:55N 29°53' W 092°25'0 0.0
2018-Feb-11 07:49N 29°53' W 092°25'0 0.0
2018-Feb-11 07:30N 29°53' W 092°25'0 0.0
2018-Feb-11 06:58N 29°53' W 092°25'0 0.0
2018-Feb-11 06:30N 29°53' W 092°25'33 3.5
2018-Feb-10 21:06N 29°56' W 093°03'1 4.4
2018-Feb-10 20:56N 29°56' W 093°04'2 4.2
2018-Feb-10 20:30N 29°56' W 093°06'2 4.2
2018-Feb-10 20:00N 29°56' W 093°08'0 0.2
2018-Feb-10 19:30N 29°56' W 093°08'1 1.6
2018-Feb-10 19:00N 29°56' W 093°09'2 4.2
2018-Feb-10 18:31N 29°58' W 093°11'2 3.7
2018-Feb-10 18:00N 29°59' W 093°12'2 3.7
2018-Feb-10 17:30N 30°00' W 093°14'2 3.2
2018-Feb-10 17:01N 30°02' W 093°15'1 1.2
2018-Feb-10 16:30N 30°02' W 093°15'2 3.1
2018-Feb-10 16:00N 30°04' W 093°16'1 2.7
2018-Feb-10 15:30N 30°05' W 093°17'1 2.7
2018-Feb-10 15:00N 30°06' W 093°18'1 1.2
2018-Feb-10 14:30N 30°06' W 093°18'0 0.0
2018-Feb-10 14:00N 30°06' W 093°18'0 0.0
2018-Feb-10 13:30N 30°06' W 093°18'0 0.0
2018-Feb-10 13:00N 30°06' W 093°18'0 0.0
2018-Feb-10 12:30N 30°06' W 093°18'0 0.0
2018-Feb-10 12:00N 30°06' W 093°18'0 0.0
2018-Feb-10 11:30N 30°06' W 093°18'0 0.0
2018-Feb-10 11:00N 30°06' W 093°18'0 0.0
2018-Feb-10 10:30N 30°06' W 093°18'0 0.0
2018-Feb-10 10:00N 30°06' W 093°18'0 0.0
2018-Feb-10 09:30N 30°06' W 093°18'0 0.0
2018-Feb-10 09:00N 30°06' W 093°18'0 0.0
2018-Feb-10 08:30N 30°06' W 093°18'0 0.0
2018-Feb-10 08:00N 30°06' W 093°18'0 0.0
2018-Feb-10 07:30N 30°06' W 093°18'0 0.0
2018-Feb-10 07:00N 30°06' W 093°18'0 0.1
2018-Feb-10 06:30N 30°06' W 093°18'0 0.0
2018-Feb-10 06:00N 30°06' W 093°18'0 0.0
2018-Feb-10 05:30N 30°06' W 093°18'0 0.0
2018-Feb-10 05:00N 30°06' W 093°18'1 1.3
2018-Feb-10 04:31N 30°06' W 093°19'0 0.0
2018-Feb-10 04:00N 30°06' W 093°19'0 0.0
2018-Feb-10 03:30N 30°06' W 093°19'0 0.0
2018-Feb-10 03:00N 30°06' W 093°19'0 0.0
2018-Feb-10 02:30N 30°06' W 093°19'0 0.4
2018-Feb-10 02:00N 30°06' W 093°19'2 4.1
2018-Feb-10 01:30N 30°04' W 093°21'2 3.1
2018-Feb-10 01:00N 30°04' W 093°22'7 4.1
2018-Feb-09 23:22N 30°04' W 093°30'2 4.4
2018-Feb-09 22:59N 30°04' W 093°32'1 4.4
2018-Feb-09 22:46N 30°04' W 093°33'25 4.8
2018-Feb-09 17:30N 29°50' W 093°57'61 1.5
2018-Feb-07 23:54N 29°46' W 095°07'0 0.0
2018-Feb-07 21:58N 29°46' W 095°07'0 0.5
2018-Feb-07 21:30N 29°46' W 095°07'0 0.0
2018-Feb-06 22:04N 29°46' W 095°07'0 1.5
2018-Feb-06 21:59N 29°46' W 095°07'0 0.0
2018-Feb-06 20:32N 29°46' W 095°07'0 0.0
2018-Feb-06 20:30N 29°46' W 095°07'0 0.1
2018-Feb-06 19:30N 29°46' W 095°07'0 0.0
2018-Feb-06 18:23N 29°46' W 095°07'0 0.0
2018-Feb-06 17:59N 29°46' W 095°07'0 0.0
2018-Feb-06 17:30N 29°46' W 095°07'0 0.0
2018-Feb-06 17:00N 29°46' W 095°07'0 0.0
2018-Feb-06 16:27N 29°46' W 095°07'0 0.0
2018-Feb-06 16:00N 29°46' W 095°07'0 0.0
2018-Feb-06 15:30N 29°46' W 095°07'0 0.0
2018-Feb-06 15:00N 29°46' W 095°07'0 0.0
2018-Feb-06 14:30N 29°46' W 095°07'0 0.0
2018-Feb-06 14:00N 29°46' W 095°07'0 0.0
2018-Feb-06 11:14N 29°46' W 095°07'0 0.0
2018-Feb-06 11:00N 29°46' W 095°07'0 0.0
2018-Feb-06 07:37N 29°46' W 095°07'0 0.0
2018-Feb-06 07:29N 29°46' W 095°07'0 0.0
2018-Feb-06 06:01N 29°46' W 095°07'0 0.0
2018-Feb-06 05:56N 29°46' W 095°07'0 0.0
2018-Feb-06 05:30N 29°46' W 095°07'0 0.0
2018-Feb-06 03:30N 29°46' W 095°07'0 0.0
2018-Feb-06 00:46N 29°46' W 095°07'0 0.0
2018-Feb-06 00:29N 29°46' W 095°07'0 0.0
2018-Feb-05 23:57N 29°46' W 095°07'0 0.0
2018-Feb-05 23:30N 29°46' W 095°07'0 0.0
2018-Feb-05 23:00N 29°46' W 095°07'0 0.0
2018-Feb-05 22:30N 29°46' W 095°07'0 0.0
2018-Feb-05 21:25N 29°46' W 095°07'0 0.0
2018-Feb-05 21:00N 29°46' W 095°07'0 0.0
2018-Feb-05 20:29N 29°46' W 095°07'0 0.0
2018-Feb-05 20:00N 29°46' W 095°07'0 0.0
2018-Feb-05 19:30N 29°46' W 095°07'0 0.0
2018-Feb-04 15:30N 29°46' W 095°07'0 0.0
2018-Feb-04 09:44N 29°46' W 095°07'  

Dump ship's entire track history